WAT3321 FQMA-FMMI
Flight info
| Callsign | WAT3321 |
|---|---|
| Flight time | N/A |
| Altitude | 27000 |
| Route | UVERO1A USUMO UB536 EROPA/N0476F350 UB536 VSO/N0477F370 UB536 SOPVI DCT TW TW1B |
| Aircraft | B77L/H-SDE1E2E3FGHIJ2J3J4J5M1RWXY/LB1D1 |
Departure
| Time | 2026-04-26 10:34 |
|---|---|
| Airport | Maputo Airport (FQMA) |
Arrival
| Time | N/A |
|---|---|
| Airport | Ivato International Airport (FMMI) |
| Time | Latitude | Longitude | Altitude | Speed | Heading |
|---|---|---|---|---|---|
| 2026-04-26 10:13 | -25.92287 | 32.57575 | 143 ft | 0 kts | 176° |
| 2026-04-26 10:26 | -25.92272 | 32.57574 | 142 ft | 2 kts | 176° |
| 2026-04-26 10:26 | -25.92257 | 32.57573 | 142 ft | 2 kts | 176° |
| 2026-04-26 10:26 | -25.92242 | 32.57572 | 142 ft | 2 kts | 176° |
| 2026-04-26 10:27 | -25.92227 | 32.57571 | 142 ft | 2 kts | 176° |
| 2026-04-26 10:27 | -25.92212 | 32.57570 | 142 ft | 2 kts | 176° |
| 2026-04-26 10:27 | -25.92197 | 32.57570 | 142 ft | 2 kts | 176° |
| 2026-04-26 10:27 | -25.92186 | 32.57568 | 142 ft | 2 kts | 176° |
| 2026-04-26 10:28 | -25.92172 | 32.57568 | 141 ft | 2 kts | 176° |
| 2026-04-26 10:28 | -25.92158 | 32.57567 | 141 ft | 1 kts | 176° |
| 2026-04-26 10:28 | -25.92156 | 32.57567 | 141 ft | 0 kts | 176° |
| 2026-04-26 10:30 | -25.92158 | 32.57567 | 141 ft | 1 kts | 185° |
| 2026-04-26 10:30 | -25.92175 | 32.57549 | 141 ft | 6 kts | 247° |
| 2026-04-26 10:30 | -25.92187 | 32.57489 | 142 ft | 7 kts | 261° |
| 2026-04-26 10:30 | -25.92194 | 32.57435 | 143 ft | 6 kts | 259° |
| 2026-04-26 10:31 | -25.92221 | 32.57390 | 144 ft | 9 kts | 220° |
| 2026-04-26 10:31 | -25.92289 | 32.57341 | 145 ft | 12 kts | 210° |
| 2026-04-26 10:31 | -25.92360 | 32.57298 | 145 ft | 11 kts | 209° |
| 2026-04-26 10:31 | -25.92434 | 32.57252 | 144 ft | 12 kts | 209° |
| 2026-04-26 10:32 | -25.92515 | 32.57200 | 141 ft | 12 kts | 220° |
| 2026-04-26 10:32 | -25.92514 | 32.57127 | 140 ft | 11 kts | 298° |
| 2026-04-26 10:32 | -25.92479 | 32.57061 | 138 ft | 5 kts | 300° |
| 2026-04-26 10:32 | -25.92453 | 32.57038 | 138 ft | 4 kts | 1° |
| 2026-04-26 10:33 | -25.92415 | 32.57055 | 138 ft | 9 kts | 27° |
| 2026-04-26 10:33 | -25.92257 | 32.57148 | 139 ft | 57 kts | 27° |
| 2026-04-26 10:33 | -25.91648 | 32.57522 | 139 ft | 141 kts | 30° |
| 2026-04-26 10:33 | -25.90654 | 32.58141 | 575 ft | 173 kts | 25° |
| 2026-04-26 10:34 | -25.89619 | 32.58741 | 1566 ft | 171 kts | 27° |
| 2026-04-26 10:34 | -25.88662 | 32.59568 | 2118 ft | 185 kts | 47° |
| 2026-04-26 10:34 | -25.87976 | 32.60837 | 2597 ft | 203 kts | 60° |
| 2026-04-26 10:34 | -25.87327 | 32.62280 | 3157 ft | 218 kts | 61° |
| 2026-04-26 10:35 | -25.86626 | 32.63850 | 3739 ft | 234 kts | 62° |
| 2026-04-26 10:35 | -25.85880 | 32.65519 | 4338 ft | 250 kts | 62° |
| 2026-04-26 10:35 | -25.85079 | 32.67313 | 4946 ft | 267 kts | 62° |
| 2026-04-26 10:35 | -25.84247 | 32.69176 | 5688 ft | 277 kts | 62° |
| 2026-04-26 10:36 | -25.83389 | 32.71098 | 6544 ft | 281 kts | 62° |
| 2026-04-26 10:36 | -25.82519 | 32.73048 | 7312 ft | 287 kts | 62° |
| 2026-04-26 10:36 | -25.81637 | 32.75023 | 8072 ft | 293 kts | 62° |
| 2026-04-26 10:36 | -25.80729 | 32.77056 | 8861 ft | 297 kts | 62° |
| 2026-04-26 10:37 | -25.79799 | 32.79135 | 9663 ft | 302 kts | 62° |
| 2026-04-26 10:37 | -25.78857 | 32.81242 | 10373 ft | 310 kts | 62° |
| 2026-04-26 10:37 | -25.77884 | 32.83416 | 10838 ft | 326 kts | 62° |
| 2026-04-26 10:37 | -25.76853 | 32.85716 | 11293 ft | 344 kts | 62° |
| 2026-04-26 10:38 | -25.75757 | 32.88162 | 11848 ft | 360 kts | 62° |
| 2026-04-26 10:38 | -25.74617 | 32.90705 | 12399 ft | 376 kts | 62° |
| 2026-04-26 10:38 | -25.73433 | 32.93347 | 12967 ft | 392 kts | 62° |
| 2026-04-26 10:38 | -25.72193 | 32.96111 | 13666 ft | 405 kts | 62° |
| 2026-04-26 10:39 | -25.70944 | 32.98898 | 14611 ft | 410 kts | 62° |
| 2026-04-26 10:39 | -25.69674 | 33.01730 | 15661 ft | 414 kts | 63° |
| 2026-04-26 10:39 | -25.68401 | 33.04568 | 16737 ft | 417 kts | 63° |
| 2026-04-26 10:39 | -25.67107 | 33.07488 | 17733 ft | 422 kts | 64° |
| 2026-04-26 10:40 | -25.65857 | 33.10428 | 18542 ft | 431 kts | 65° |
| 2026-04-26 10:40 | -25.64567 | 33.13469 | 19356 ft | 440 kts | 65° |
| 2026-04-26 10:40 | -25.63268 | 33.16527 | 20163 ft | 448 kts | 65° |
| 2026-04-26 10:40 | -25.61930 | 33.19671 | 21010 ft | 455 kts | 65° |
| 2026-04-26 10:41 | -25.60568 | 33.22866 | 21802 ft | 462 kts | 65° |
| 2026-04-26 10:41 | -25.59187 | 33.26104 | 22598 ft | 468 kts | 65° |
| 2026-04-26 10:41 | -25.57801 | 33.29349 | 23279 ft | 476 kts | 66° |
| 2026-04-26 10:41 | -25.56365 | 33.32706 | 23906 ft | 485 kts | 66° |
| 2026-04-26 10:42 | -25.54923 | 33.36075 | 24513 ft | 493 kts | 66° |
| 2026-04-26 10:42 | -25.53444 | 33.39530 | 25147 ft | 501 kts | 66° |
| 2026-04-26 10:42 | -25.51946 | 33.43025 | 25812 ft | 508 kts | 67° |
| 2026-04-26 10:42 | -25.50402 | 33.46622 | 26428 ft | 516 kts | 67° |
| 2026-04-26 10:43 | -25.48856 | 33.50223 | 27034 ft | 524 kts | 67° |
| 2026-04-26 10:43 | -25.47288 | 33.53872 | 27670 ft | 531 kts | 68° |
| 2026-04-26 10:43 | -25.45694 | 33.57577 | 28287 ft | 538 kts | 68° |
| 2026-04-26 10:43 | -25.44072 | 33.61346 | 28858 ft | 546 kts | 68° |
| 2026-04-26 10:44 | -25.42433 | 33.65148 | 29642 ft | 550 kts | 68° |
| 2026-04-26 10:44 | -25.40810 | 33.68908 | 30626 ft | 548 kts | 68° |
| 2026-04-26 10:44 | -25.39163 | 33.72720 | 31734 ft | 542 kts | 68° |
| 2026-04-26 10:44 | -25.37564 | 33.76417 | 32741 ft | 538 kts | 68° |
| 2026-04-26 10:45 | -25.35954 | 33.80138 | 33770 ft | 535 kts | 68° |
| 2026-04-26 10:45 | -25.34350 | 33.83842 | 34864 ft | 530 kts | 67° |
| 2026-04-26 10:45 | -25.32778 | 33.87469 | 35979 ft | 523 kts | 67° |
| 2026-04-26 10:45 | -25.31212 | 33.91081 | 36840 ft | 521 kts | 67° |
| 2026-04-26 10:46 | -25.29647 | 33.94690 | 37007 ft | 524 kts | 66° |
| 2026-04-26 10:46 | -25.28092 | 33.98269 | 37010 ft | 520 kts | 67° |
| 2026-04-26 10:46 | -25.24975 | 34.05439 | 37014 ft | 519 kts | 67° |
| 2026-04-26 10:47 | -25.21810 | 34.12709 | 37017 ft | 519 kts | 67° |
| 2026-04-26 10:47 | -25.18660 | 34.19932 | 37018 ft | 520 kts | 67° |
| 2026-04-26 10:48 | -25.15512 | 34.27139 | 37010 ft | 519 kts | 67° |
| 2026-04-26 10:48 | -25.12380 | 34.34296 | 37006 ft | 519 kts | 67° |
| 2026-04-26 10:49 | -25.09244 | 34.41452 | 37011 ft | 519 kts | 67° |
| 2026-04-26 10:49 | -25.06124 | 34.48559 | 37010 ft | 517 kts | 67° |
| 2026-04-26 10:50 | -25.03498 | 34.54534 | 37010 ft | 519 kts | 67° |
| 2026-04-26 10:50 | -24.99843 | 34.62833 | 37013 ft | 518 kts | 68° |
| 2026-04-26 10:51 | -24.95111 | 34.73556 | 37009 ft | 518 kts | 67° |
| 2026-04-26 10:52 | -24.91962 | 34.80678 | 37016 ft | 518 kts | 67° |
| 2026-04-26 10:52 | -24.88795 | 34.87828 | 37006 ft | 519 kts | 67° |
| 2026-04-26 10:53 | -24.85634 | 34.94953 | 37006 ft | 517 kts | 67° |
| 2026-04-26 10:53 | -24.82468 | 35.02079 | 37009 ft | 518 kts | 67° |
| 2026-04-26 10:54 | -24.77736 | 35.12707 | 37011 ft | 517 kts | 67° |
| 2026-04-26 10:54 | -24.74580 | 35.19782 | 37010 ft | 516 kts | 67° |
| 2026-04-26 10:55 | -24.71405 | 35.26890 | 37010 ft | 517 kts | 67° |
| 2026-04-26 10:55 | -24.68252 | 35.33936 | 37011 ft | 517 kts | 67° |
| 2026-04-26 10:56 | -24.65061 | 35.41057 | 37015 ft | 517 kts | 67° |
| 2026-04-26 10:56 | -24.61884 | 35.48135 | 37014 ft | 517 kts | 67° |
| 2026-04-26 10:57 | -24.58725 | 35.55161 | 37013 ft | 517 kts | 67° |
| 2026-04-26 10:57 | -24.55518 | 35.62285 | 37019 ft | 518 kts | 67° |
| 2026-04-26 10:58 | -24.52326 | 35.69363 | 37012 ft | 517 kts | 66° |
| 2026-04-26 10:58 | -24.49134 | 35.76430 | 37010 ft | 518 kts | 66° |
| 2026-04-26 10:59 | -24.45941 | 35.83488 | 37012 ft | 517 kts | 66° |
| 2026-04-26 10:59 | -24.42736 | 35.90564 | 37012 ft | 516 kts | 66° |
| 2026-04-26 11:00 | -24.39536 | 35.97616 | 37012 ft | 517 kts | 66° |
| 2026-04-26 11:00 | -24.36326 | 36.04681 | 37016 ft | 519 kts | 67° |
| 2026-04-26 11:01 | -24.33135 | 36.11691 | 37014 ft | 516 kts | 67° |
| 2026-04-26 11:01 | -24.29919 | 36.18747 | 37015 ft | 517 kts | 66° |
| 2026-04-26 11:02 | -24.26707 | 36.25785 | 37016 ft | 517 kts | 66° |
| 2026-04-26 11:02 | -24.23492 | 36.32817 | 37017 ft | 517 kts | 67° |
| 2026-04-26 11:03 | -24.20278 | 36.39836 | 37012 ft | 517 kts | 66° |
| 2026-04-26 11:03 | -24.17049 | 36.46877 | 37013 ft | 517 kts | 66° |
| 2026-04-26 11:04 | -24.13827 | 36.53894 | 37009 ft | 516 kts | 67° |
| 2026-04-26 11:04 | -24.10618 | 36.60871 | 37010 ft | 517 kts | 66° |
| 2026-04-26 11:05 | -24.07388 | 36.67881 | 36998 ft | 516 kts | 66° |
| 2026-04-26 11:05 | -24.04154 | 36.74894 | 37000 ft | 515 kts | 66° |
| 2026-04-26 11:06 | -24.00949 | 36.81865 | 36998 ft | 517 kts | 66° |
| 2026-04-26 11:06 | -23.97740 | 36.88837 | 36999 ft | 518 kts | 66° |